sensor_id;sensor_type;location;lat;lon;timestamp;P1;P2;P0
77320;PMS7003;66382;52.252;8.780;2024-02-04T00:02:21;12.75;12.75;9.50
77320;PMS7003;66382;52.252;8.780;2024-02-04T00:04:47;11.50;11.50;9.00
77320;PMS7003;66382;52.252;8.780;2024-02-04T00:07:12;15.50;15.25;10.00
77320;PMS7003;66382;52.252;8.780;2024-02-04T00:09:37;15.00;15.00;11.75
77320;PMS7003;66382;52.252;8.780;2024-02-04T00:12:03;15.75;15.75;11.75
77320;PMS7003;66382;52.252;8.780;2024-02-04T00:14:30;15.50;15.50;10.75
77320;PMS7003;66382;52.252;8.780;2024-02-04T00:16:56;16.00;16.00;11.75
77320;PMS7003;66382;52.252;8.780;2024-02-04T00:19:21;20.75;19.75;13.00
77320;PMS7003;66382;52.252;8.780;2024-02-04T00:21:47;17.50;17.50;13.00
77320;PMS7003;66382;52.252;8.780;2024-02-04T00:24:12;19.50;19.25;13.75
77320;PMS7003;66382;52.252;8.780;2024-02-04T00:26:37;22.75;22.75;13.25
77320;PMS7003;66382;52.252;8.780;2024-02-04T00:29:03;18.75;18.75;13.50
77320;PMS7003;66382;52.252;8.780;2024-02-04T00:31:30;21.00;21.00;11.50
77320;PMS7003;66382;52.252;8.780;2024-02-04T00:33:55;21.50;21.50;11.75
77320;PMS7003;66382;52.252;8.780;2024-02-04T00:36:21;20.00;20.00;12.75
77320;PMS7003;66382;52.252;8.780;2024-02-04T00:38:46;19.75;19.75;13.00
77320;PMS7003;66382;52.252;8.780;2024-02-04T00:41:11;19.25;19.25;13.00
77320;PMS7003;66382;52.252;8.780;2024-02-04T00:43:37;16.00;16.00;13.00
77320;PMS7003;66382;52.252;8.780;2024-02-04T00:46:02;18.50;18.50;13.00
77320;PMS7003;66382;52.252;8.780;2024-02-04T00:48:29;17.25;17.25;12.00
77320;PMS7003;66382;52.252;8.780;2024-02-04T00:50:55;19.50;19.00;13.00
77320;PMS7003;66382;52.252;8.780;2024-02-04T00:53:20;18.25;18.25;12.00
77320;PMS7003;66382;52.252;8.780;2024-02-04T00:55:46;19.50;18.75;13.00
77320;PMS7003;66382;52.252;8.780;2024-02-04T00:58:11;16.25;16.25;11.25
77320;PMS7003;66382;52.252;8.780;2024-02-04T01:00:36;17.00;15.75;10.25
77320;PMS7003;66382;52.252;8.780;2024-02-04T01:03:02;16.00;16.00;11.00
77320;PMS7003;66382;52.252;8.780;2024-02-04T01:05:29;18.50;18.50;12.00
77320;PMS7003;66382;52.252;8.780;2024-02-04T01:07:54;15.00;15.00;11.00
77320;PMS7003;66382;52.252;8.780;2024-02-04T01:10:20;18.75;18.75;12.00
77320;PMS7003;66382;52.252;8.780;2024-02-04T01:12:45;16.50;16.50;12.00
77320;PMS7003;66382;52.252;8.780;2024-02-04T01:15:11;14.75;14.75;11.75
77320;PMS7003;66382;52.252;8.780;2024-02-04T01:17:36;14.25;14.25;10.00
77320;PMS7003;66382;52.252;8.780;2024-02-04T01:20:02;12.00;12.00;9.75
77320;PMS7003;66382;52.252;8.780;2024-02-04T01:22:29;14.25;14.25;10.75
77320;PMS7003;66382;52.252;8.780;2024-02-04T01:24:54;16.00;16.00;12.00
77320;PMS7003;66382;52.252;8.780;2024-02-04T01:27:20;15.50;15.50;9.25
77320;PMS7003;66382;52.252;8.780;2024-02-04T01:29:45;14.50;14.00;11.75
77320;PMS7003;66382;52.252;8.780;2024-02-04T01:32:11;16.00;15.00;10.00
77320;PMS7003;66382;52.252;8.780;2024-02-04T01:34:36;11.75;11.75;9.00
77320;PMS7003;66382;52.252;8.780;2024-02-04T01:37:02;14.00;14.00;10.75
77320;PMS7003;66382;52.252;8.780;2024-02-04T01:39:29;7.00;7.00;3.00
77320;PMS7003;66382;52.252;8.780;2024-02-04T01:41:54;13.00;13.00;10.00
77320;PMS7003;66382;52.252;8.780;2024-02-04T01:44:19;11.25;11.25;8.00
77320;PMS7003;66382;52.252;8.780;2024-02-04T01:46:45;9.50;9.50;7.25
77320;PMS7003;66382;52.252;8.780;2024-02-04T01:49:10;12.75;12.75;9.00
77320;PMS7003;66382;52.252;8.780;2024-02-04T01:51:36;14.00;14.00;9.25
77320;PMS7003;66382;52.252;8.780;2024-02-04T01:54:02;13.75;13.75;10.50
77320;PMS7003;66382;52.252;8.780;2024-02-04T01:56:29;10.00;10.00;8.25
77320;PMS7003;66382;52.252;8.780;2024-02-04T01:58:55;14.25;14.25;9.50
77320;PMS7003;66382;52.252;8.780;2024-02-04T02:01:22;12.00;12.00;9.00
77320;PMS7003;66382;52.252;8.780;2024-02-04T02:03:47;13.25;13.25;8.50
77320;PMS7003;66382;52.252;8.780;2024-02-04T02:06:13;12.00;12.00;8.00
77320;PMS7003;66382;52.252;8.780;2024-02-04T02:08:40;10.00;10.00;8.25
77320;PMS7003;66382;52.252;8.780;2024-02-04T02:11:07;10.75;10.75;9.00
77320;PMS7003;66382;52.252;8.780;2024-02-04T02:13:39;11.75;11.75;7.00
77320;PMS7003;66382;52.252;8.780;2024-02-04T02:16:07;14.25;12.50;10.00
77320;PMS7003;66382;52.252;8.780;2024-02-04T02:18:37;13.75;13.50;9.00
77320;PMS7003;66382;52.252;8.780;2024-02-04T02:21:12;13.75;13.75;10.50
77320;PMS7003;66382;52.252;8.780;2024-02-04T02:23:53;15.50;15.50;9.50
77320;PMS7003;66382;52.252;8.780;2024-02-04T02:26:29;14.75;14.75;9.75
77320;PMS7003;66382;52.252;8.780;2024-02-04T02:28:55;14.00;14.00;10.50
77320;PMS7003;66382;52.252;8.780;2024-02-04T02:31:21;13.00;13.00;9.50
77320;PMS7003;66382;52.252;8.780;2024-02-04T02:33:46;11.75;11.75;8.50
77320;PMS7003;66382;52.252;8.780;2024-02-04T02:36:13;14.00;14.00;9.75
77320;PMS7003;66382;52.252;8.780;2024-02-04T02:38:46;12.00;12.00;8.00
77320;PMS7003;66382;52.252;8.780;2024-02-04T02:41:17;14.00;14.00;10.00
77320;PMS7003;66382;52.252;8.780;2024-02-04T02:43:47;14.50;14.50;9.00
77320;PMS7003;66382;52.252;8.780;2024-02-04T02:46:16;12.00;12.00;8.75
77320;PMS7003;66382;52.252;8.780;2024-02-04T02:48:42;11.00;11.00;8.00
77320;PMS7003;66382;52.252;8.780;2024-02-04T02:51:07;12.75;12.75;10.50
77320;PMS7003;66382;52.252;8.780;2024-02-04T02:53:33;12.00;12.00;9.00
77320;PMS7003;66382;52.252;8.780;2024-02-04T02:55:58;13.00;13.00;9.25
77320;PMS7003;66382;52.252;8.780;2024-02-04T02:58:24;10.25;10.25;8.75
77320;PMS7003;66382;52.252;8.780;2024-02-04T03:00:50;14.25;14.25;9.00
77320;PMS7003;66382;52.252;8.780;2024-02-04T03:03:16;16.50;16.50;10.50
77320;PMS7003;66382;52.252;8.780;2024-02-04T03:05:41;11.50;11.50;9.00
77320;PMS7003;66382;52.252;8.780;2024-02-04T03:08:07;10.25;10.25;8.50
77320;PMS7003;66382;52.252;8.780;2024-02-04T03:10:32;12.50;12.50;9.25
77320;PMS7003;66382;52.252;8.780;2024-02-04T03:12:58;14.75;14.75;10.00
77320;PMS7003;66382;52.252;8.780;2024-02-04T03:15:23;12.75;12.75;10.50
77320;PMS7003;66382;52.252;8.780;2024-02-04T03:17:50;13.00;13.00;10.00
77320;PMS7003;66382;52.252;8.780;2024-02-04T03:20:15;15.00;15.00;10.00
77320;PMS7003;66382;52.252;8.780;2024-02-04T03:22:41;12.00;12.00;8.75
77320;PMS7003;66382;52.252;8.780;2024-02-04T03:25:06;8.50;8.50;7.00
77320;PMS7003;66382;52.252;8.780;2024-02-04T03:27:32;14.25;14.25;9.25
77320;PMS7003;66382;52.252;8.780;2024-02-04T03:29:57;9.50;9.50;7.25
77320;PMS7003;66382;52.252;8.780;2024-02-04T03:32:23;11.00;11.00;8.00
77320;PMS7003;66382;52.252;8.780;2024-02-04T03:34:50;8.75;8.75;7.00
77320;PMS7003;66382;52.252;8.780;2024-02-04T03:37:15;14.25;14.25;9.25
77320;PMS7003;66382;52.252;8.780;2024-02-04T03:39:41;11.50;11.25;6.00
77320;PMS7003;66382;52.252;8.780;2024-02-04T03:42:06;13.25;13.25;7.75
77320;PMS7003;66382;52.252;8.780;2024-02-04T03:44:31;12.00;12.00;8.00
77320;PMS7003;66382;52.252;8.780;2024-02-04T03:46:57;10.75;10.75;7.75
77320;PMS7003;66382;52.252;8.780;2024-02-04T03:49:22;10.75;10.75;8.00
77320;PMS7003;66382;52.252;8.780;2024-02-04T03:51:49;10.00;10.00;8.00
77320;PMS7003;66382;52.252;8.780;2024-02-04T03:54:15;9.75;9.75;7.25
77320;PMS7003;66382;52.252;8.780;2024-02-04T03:56:40;11.75;11.75;8.25
77320;PMS7003;66382;52.252;8.780;2024-02-04T03:59:07;11.00;11.00;9.00
77320;PMS7003;66382;52.252;8.780;2024-02-04T04:01:32;11.00;11.00;7.50
77320;PMS7003;66382;52.252;8.780;2024-02-04T04:03:58;8.50;8.50;7.00
77320;PMS7003;66382;52.252;8.780;2024-02-04T04:06:23;9.50;9.50;6.00
77320;PMS7003;66382;52.252;8.780;2024-02-04T04:08:50;8.75;8.75;6.00
77320;PMS7003;66382;52.252;8.780;2024-02-04T04:11:15;8.00;8.00;6.25
77320;PMS7003;66382;52.252;8.780;2024-02-04T04:13:41;7.00;7.00;6.00
77320;PMS7003;66382;52.252;8.780;2024-02-04T04:16:06;8.25;8.25;6.00
77320;PMS7003;66382;52.252;8.780;2024-02-04T04:18:32;8.00;8.00;7.25
77320;PMS7003;66382;52.252;8.780;2024-02-04T04:20:57;9.25;9.25;6.75
77320;PMS7003;66382;52.252;8.780;2024-02-04T04:23:23;9.75;9.75;7.00
77320;PMS7003;66382;52.252;8.780;2024-02-04T04:25:50;8.25;8.25;6.00
77320;PMS7003;66382;52.252;8.780;2024-02-04T04:28:15;7.25;7.25;5.50
77320;PMS7003;66382;52.252;8.780;2024-02-04T04:30:41;9.75;9.75;7.75
77320;PMS7003;66382;52.252;8.780;2024-02-04T04:33:06;5.75;5.75;5.00
77320;PMS7003;66382;52.252;8.780;2024-02-04T04:35:31;11.00;11.00;8.75
77320;PMS7003;66382;52.252;8.780;2024-02-04T04:37:57;9.00;9.00;7.00
77320;PMS7003;66382;52.252;8.780;2024-02-04T04:40:22;9.75;9.75;8.00
77320;PMS7003;66382;52.252;8.780;2024-02-04T04:42:49;10.25;10.25;8.00
77320;PMS7003;66382;52.252;8.780;2024-02-04T04:45:15;9.50;9.50;7.25
77320;PMS7003;66382;52.252;8.780;2024-02-04T04:47:40;10.50;10.50;9.00
77320;PMS7003;66382;52.252;8.780;2024-02-04T04:50:06;10.25;10.25;7.25
77320;PMS7003;66382;52.252;8.780;2024-02-04T04:52:32;10.00;10.00;7.50
77320;PMS7003;66382;52.252;8.780;2024-02-04T04:54:57;9.00;9.00;7.00
77320;PMS7003;66382;52.252;8.780;2024-02-04T04:57:23;8.25;8.25;7.00
77320;PMS7003;66382;52.252;8.780;2024-02-04T04:59:50;12.00;12.00;8.50
77320;PMS7003;66382;52.252;8.780;2024-02-04T05:02:15;11.00;11.00;9.50
77320;PMS7003;66382;52.252;8.780;2024-02-04T05:04:42;10.50;10.50;7.50
77320;PMS7003;66382;52.252;8.780;2024-02-04T05:07:08;10.00;10.00;8.00
77320;PMS7003;66382;52.252;8.780;2024-02-04T05:09:33;9.25;9.25;7.50
77320;PMS7003;66382;52.252;8.780;2024-02-04T05:11:59;7.75;7.75;5.50
77320;PMS7003;66382;52.252;8.780;2024-02-04T05:14:24;7.00;7.00;5.00
77320;PMS7003;66382;52.252;8.780;2024-02-04T05:16:51;6.50;6.50;5.00
77320;PMS7003;66382;52.252;8.780;2024-02-04T05:19:16;6.00;6.00;5.00
77320;PMS7003;66382;52.252;8.780;2024-02-04T05:21:42;5.25;5.25;5.00
77320;PMS7003;66382;52.252;8.780;2024-02-04T05:24:07;3.00;3.00;3.00
77320;PMS7003;66382;52.252;8.780;2024-02-04T05:26:33;5.00;5.00;4.00
77320;PMS7003;66382;52.252;8.780;2024-02-04T05:28:58;4.50;4.50;4.00
77320;PMS7003;66382;52.252;8.780;2024-02-04T05:31:24;4.00;4.00;3.00
77320;PMS7003;66382;52.252;8.780;2024-02-04T05:33:51;5.00;5.00;4.00
77320;PMS7003;66382;52.252;8.780;2024-02-04T05:36:17;4.25;4.25;3.00
77320;PMS7003;66382;52.252;8.780;2024-02-04T05:38:44;6.00;6.00;4.50
77320;PMS7003;66382;52.252;8.780;2024-02-04T05:41:10;5.00;5.00;4.00
77320;PMS7003;66382;52.252;8.780;2024-02-04T05:43:35;5.00;5.00;3.25
77320;PMS7003;66382;52.252;8.780;2024-02-04T05:46:01;3.25;3.25;3.00
77320;PMS7003;66382;52.252;8.780;2024-02-04T05:48:26;5.00;5.00;3.00
77320;PMS7003;66382;52.252;8.780;2024-02-04T05:50:53;7.00;7.00;5.00
77320;PMS7003;66382;52.252;8.780;2024-02-04T05:53:19;7.00;7.00;5.50
77320;PMS7003;66382;52.252;8.780;2024-02-04T05:55:44;8.00;8.00;6.00
77320;PMS7003;66382;52.252;8.780;2024-02-04T05:58:11;5.50;5.50;4.50
77320;PMS7003;66382;52.252;8.780;2024-02-04T06:00:36;6.00;6.00;5.00
77320;PMS7003;66382;52.252;8.780;2024-02-04T06:03:02;4.00;4.00;3.00
77320;PMS7003;66382;52.252;8.780;2024-02-04T06:05:27;5.00;5.00;4.00
77320;PMS7003;66382;52.252;8.780;2024-02-04T06:07:54;5.25;5.25;4.25
77320;PMS7003;66382;52.252;8.780;2024-02-04T06:10:20;3.00;3.00;2.00
77320;PMS7003;66382;52.252;8.780;2024-02-04T06:12:45;4.00;4.00;3.50
77320;PMS7003;66382;52.252;8.780;2024-02-04T06:15:13;5.00;5.00;4.00
77320;PMS7003;66382;52.252;8.780;2024-02-04T06:17:39;3.00;3.00;2.25
77320;PMS7003;66382;52.252;8.780;2024-02-04T06:20:05;4.25;4.25;3.75
77320;PMS7003;66382;52.252;8.780;2024-02-04T06:22:31;4.00;4.00;3.00
77320;PMS7003;66382;52.252;8.780;2024-02-04T06:24:58;4.75;4.75;3.75
77320;PMS7003;66382;52.252;8.780;2024-02-04T06:27:23;3.50;3.50;3.25
77320;PMS7003;66382;52.252;8.780;2024-02-04T06:29:48;5.75;5.75;4.00
77320;PMS7003;66382;52.252;8.780;2024-02-04T06:32:14;4.25;4.25;4.00
77320;PMS7003;66382;52.252;8.780;2024-02-04T06:34:39;5.00;5.00;4.00
77320;PMS7003;66382;52.252;8.780;2024-02-04T06:37:05;4.00;4.00;4.00
77320;PMS7003;66382;52.252;8.780;2024-02-04T06:39:30;3.50;3.50;3.00
77320;PMS7003;66382;52.252;8.780;2024-02-04T06:41:57;5.00;5.00;4.00
77320;PMS7003;66382;52.252;8.780;2024-02-04T06:44:22;3.00;3.00;3.00
77320;PMS7003;66382;52.252;8.780;2024-02-04T06:46:48;3.50;3.50;3.00
77320;PMS7003;66382;52.252;8.780;2024-02-04T06:49:13;5.00;5.00;5.00
77320;PMS7003;66382;52.252;8.780;2024-02-04T06:51:39;4.00;4.00;3.00
77320;PMS7003;66382;52.252;8.780;2024-02-04T06:54:04;3.50;3.50;3.00
77320;PMS7003;66382;52.252;8.780;2024-02-04T06:56:30;3.50;3.50;2.50
77320;PMS7003;66382;52.252;8.780;2024-02-04T06:58:56;3.00;3.00;2.25
77320;PMS7003;66382;52.252;8.780;2024-02-04T07:01:22;3.00;3.00;2.25
77320;PMS7003;66382;52.252;8.780;2024-02-04T07:03:47;2.00;2.00;1.75
77320;PMS7003;66382;52.252;8.780;2024-02-04T07:06:13;1.50;1.50;1.00
77320;PMS7003;66382;52.252;8.780;2024-02-04T07:08:38;2.00;2.00;1.00
77320;PMS7003;66382;52.252;8.780;2024-02-04T07:11:04;2.00;2.00;1.00
77320;PMS7003;66382;52.252;8.780;2024-02-04T07:13:29;2.00;2.00;1.75
77320;PMS7003;66382;52.252;8.780;2024-02-04T07:15:56;1.00;1.00;1.00
77320;PMS7003;66382;52.252;8.780;2024-02-04T07:18:21;1.00;1.00;1.00
77320;PMS7003;66382;52.252;8.780;2024-02-04T07:20:47;1.50;1.50;1.50
77320;PMS7003;66382;52.252;8.780;2024-02-04T07:23:12;1.00;1.00;1.00
77320;PMS7003;66382;52.252;8.780;2024-02-04T07:25:38;1.00;1.00;1.00
77320;PMS7003;66382;52.252;8.780;2024-02-04T07:28:03;2.00;2.00;1.00
77320;PMS7003;66382;52.252;8.780;2024-02-04T07:30:29;2.00;2.00;2.00
77320;PMS7003;66382;52.252;8.780;2024-02-04T07:32:55;1.25;1.25;1.00
77320;PMS7003;66382;52.252;8.780;2024-02-04T07:35:21;1.00;1.00;1.00
77320;PMS7003;66382;52.252;8.780;2024-02-04T07:37:46;1.00;1.00;1.00
77320;PMS7003;66382;52.252;8.780;2024-02-04T07:40:12;2.00;2.00;1.75
77320;PMS7003;66382;52.252;8.780;2024-02-04T07:42:37;2.25;2.25;2.00
77320;PMS7003;66382;52.252;8.780;2024-02-04T07:45:03;2.00;2.00;1.75
77320;PMS7003;66382;52.252;8.780;2024-02-04T07:47:29;1.50;1.50;1.00
77320;PMS7003;66382;52.252;8.780;2024-02-04T07:49:55;3.00;3.00;1.00
77320;PMS7003;66382;52.252;8.780;2024-02-04T07:52:21;1.00;1.00;1.00
77320;PMS7003;66382;52.252;8.780;2024-02-04T07:54:46;1.67;1.67;1.00
77320;PMS7003;66382;52.252;8.780;2024-02-04T07:57:12;1.00;1.00;1.00
77320;PMS7003;66382;52.252;8.780;2024-02-04T07:59:37;1.00;1.00;1.00
77320;PMS7003;66382;52.252;8.780;2024-02-04T08:02:03;1.75;1.75;1.00
77320;PMS7003;66382;52.252;8.780;2024-02-04T08:04:30;1.00;1.00;1.00
77320;PMS7003;66382;52.252;8.780;2024-02-04T08:06:57;2.00;2.00;2.00
77320;PMS7003;66382;52.252;8.780;2024-02-04T08:09:22;2.00;2.00;2.00
77320;PMS7003;66382;52.252;8.780;2024-02-04T08:11:48;2.00;2.00;1.50
77320;PMS7003;66382;52.252;8.780;2024-02-04T08:14:13;2.75;2.75;2.00
77320;PMS7003;66382;52.252;8.780;2024-02-04T08:16:39;2.00;2.00;2.00
77320;PMS7003;66382;52.252;8.780;2024-02-04T08:19:04;3.00;3.00;2.00
77320;PMS7003;66382;52.252;8.780;2024-02-04T08:21:30;2.00;2.00;1.25
77320;PMS7003;66382;52.252;8.780;2024-02-04T08:23:57;3.00;3.00;2.00
77320;PMS7003;66382;52.252;8.780;2024-02-04T08:26:22;2.75;2.75;2.00
77320;PMS7003;66382;52.252;8.780;2024-02-04T08:28:47;1.00;1.00;1.00
77320;PMS7003;66382;52.252;8.780;2024-02-04T08:31:13;2.50;2.50;1.50
77320;PMS7003;66382;52.252;8.780;2024-02-04T08:33:38;2.25;2.25;2.00
77320;PMS7003;66382;52.252;8.780;2024-02-04T08:36:04;2.00;2.00;1.67
77320;PMS7003;66382;52.252;8.780;2024-02-04T08:38:30;2.00;2.00;1.75
77320;PMS7003;66382;52.252;8.780;2024-02-04T08:40:57;2.00;2.00;1.50
77320;PMS7003;66382;52.252;8.780;2024-02-04T08:43:22;3.00;3.00;2.00
77320;PMS7003;66382;52.252;8.780;2024-02-04T08:45:49;3.25;3.25;2.50
77320;PMS7003;66382;52.252;8.780;2024-02-04T08:48:14;2.75;2.75;1.75
77320;PMS7003;66382;52.252;8.780;2024-02-04T08:50:40;2.00;2.00;1.75
77320;PMS7003;66382;52.252;8.780;2024-02-04T08:53:05;6.00;6.00;4.75
77320;PMS7003;66382;52.252;8.780;2024-02-04T08:55:31;3.00;3.00;2.50
77320;PMS7003;66382;52.252;8.780;2024-02-04T08:57:58;7.50;7.50;6.00
77320;PMS7003;66382;52.252;8.780;2024-02-04T09:00:23;5.50;5.50;4.00
77320;PMS7003;66382;52.252;8.780;2024-02-04T09:02:49;4.00;4.00;3.00
77320;PMS7003;66382;52.252;8.780;2024-02-04T09:05:14;4.25;4.25;3.25
77320;PMS7003;66382;52.252;8.780;2024-02-04T09:07:39;8.00;8.00;6.50
77320;PMS7003;66382;52.252;8.780;2024-02-04T09:10:05;10.75;10.75;7.50
77320;PMS7003;66382;52.252;8.780;2024-02-04T09:12:31;10.00;10.00;7.00
77320;PMS7003;66382;52.252;8.780;2024-02-04T09:14:58;7.75;7.75;5.50
77320;PMS7003;66382;52.252;8.780;2024-02-04T09:17:24;6.25;6.25;5.00
77320;PMS7003;66382;52.252;8.780;2024-02-04T09:19:52;4.75;4.75;3.00
77320;PMS7003;66382;52.252;8.780;2024-02-04T09:22:17;3.00;3.00;2.50
77320;PMS7003;66382;52.252;8.780;2024-02-04T09:24:43;7.75;7.75;6.75
77320;PMS7003;66382;52.252;8.780;2024-02-04T09:27:08;5.50;5.50;4.50
77320;PMS7003;66382;52.252;8.780;2024-02-04T09:29:34;2.75;2.75;2.00
77320;PMS7003;66382;52.252;8.780;2024-02-04T09:32:01;3.00;3.00;3.00
77320;PMS7003;66382;52.252;8.780;2024-02-04T09:34:26;2.00;2.00;2.00
77320;PMS7003;66382;52.252;8.780;2024-02-04T09:36:51;3.00;3.00;3.00
77320;PMS7003;66382;52.252;8.780;2024-02-04T09:39:17;3.00;3.00;2.00
77320;PMS7003;66382;52.252;8.780;2024-02-04T09:41:43;4.00;4.00;3.00
77320;PMS7003;66382;52.252;8.780;2024-02-04T09:44:08;3.00;3.00;2.25
77320;PMS7003;66382;52.252;8.780;2024-02-04T09:46:34;3.00;3.00;2.00
77320;PMS7003;66382;52.252;8.780;2024-02-04T09:49:01;2.00;2.00;2.00
77320;PMS7003;66382;52.252;8.780;2024-02-04T09:51:27;3.67;3.00;3.00
77320;PMS7003;66382;52.252;8.780;2024-02-04T09:53:53;1.00;1.00;1.00
77320;PMS7003;66382;52.252;8.780;2024-02-04T09:56:22;3.33;3.33;3.00
77320;PMS7003;66382;52.252;8.780;2024-02-04T09:58:50;3.00;3.00;2.00
77320;PMS7003;66382;52.252;8.780;2024-02-04T10:01:16;4.00;4.00;3.50
77320;PMS7003;66382;52.252;8.780;2024-02-04T10:03:42;4.00;4.00;3.25
77320;PMS7003;66382;52.252;8.780;2024-02-04T10:06:09;3.00;3.00;2.67
77320;PMS7003;66382;52.252;8.780;2024-02-04T10:08:34;1.00;1.00;1.00
77320;PMS7003;66382;52.252;8.780;2024-02-04T10:11:01;5.00;5.00;4.25
77320;PMS7003;66382;52.252;8.780;2024-02-04T10:13:26;3.00;3.00;3.00
77320;PMS7003;66382;52.252;8.780;2024-02-04T10:15:52;16.75;16.75;12.00
77320;PMS7003;66382;52.252;8.780;2024-02-04T10:18:17;6.00;6.00;3.00
77320;PMS7003;66382;52.252;8.780;2024-02-04T10:20:43;5.00;5.00;4.00
77320;PMS7003;66382;52.252;8.780;2024-02-04T10:23:10;4.00;4.00;3.00
77320;PMS7003;66382;52.252;8.780;2024-02-04T10:25:35;5.00;5.00;4.00
77320;PMS7003;66382;52.252;8.780;2024-02-04T10:28:01;3.67;3.67;2.33
77320;PMS7003;66382;52.252;8.780;2024-02-04T10:30:27;5.33;5.33;4.33
77320;PMS7003;66382;52.252;8.780;2024-02-04T10:32:52;3.00;3.00;2.33
77320;PMS7003;66382;52.252;8.780;2024-02-04T10:35:20;4.75;4.75;3.25
77320;PMS7003;66382;52.252;8.780;2024-02-04T10:37:45;4.00;4.00;4.00
77320;PMS7003;66382;52.252;8.780;2024-02-04T10:40:12;3.67;3.67;3.67
77320;PMS7003;66382;52.252;8.780;2024-02-04T10:42:38;2.00;2.00;2.00
77320;PMS7003;66382;52.252;8.780;2024-02-04T10:45:07;3.33;3.33;3.00
77320;PMS7003;66382;52.252;8.780;2024-02-04T10:47:34;2.33;2.33;2.00
77320;PMS7003;66382;52.252;8.780;2024-02-04T10:50:02;1.00;1.00;1.00
77320;PMS7003;66382;52.252;8.780;2024-02-04T10:52:30;2.00;2.00;2.00
77320;PMS7003;66382;52.252;8.780;2024-02-04T10:55:00;1.00;1.00;1.00
77320;PMS7003;66382;52.252;8.780;2024-02-04T10:57:28;1.00;1.00;1.00
77320;PMS7003;66382;52.252;8.780;2024-02-04T10:59:54;2.00;2.00;2.00
77320;PMS7003;66382;52.252;8.780;2024-02-04T11:02:19;2.00;2.00;1.00
77320;PMS7003;66382;52.252;8.780;2024-02-04T11:04:45;1.00;1.00;1.00
77320;PMS7003;66382;52.252;8.780;2024-02-04T11:07:13;1.33;0.33;0.33
77320;PMS7003;66382;52.252;8.780;2024-02-04T11:09:40;1.00;1.00;0.67
77320;PMS7003;66382;52.252;8.780;2024-02-04T11:12:06;0.67;0.67;0.33
77320;PMS7003;66382;52.252;8.780;2024-02-04T11:14:38;1.00;1.00;0.00
77320;PMS7003;66382;52.252;8.780;2024-02-04T11:17:14;1.00;1.00;0.67
77320;PMS7003;66382;52.252;8.780;2024-02-04T11:20:01;0.00;0.00;0.00
77320;PMS7003;66382;52.252;8.780;2024-02-04T11:22:44;0.67;0.67;0.33
77320;PMS7003;66382;52.252;8.780;2024-02-04T11:25:38;0.00;0.00;0.00
77320;PMS7003;66382;52.252;8.780;2024-02-04T11:28:08;0.33;0.33;0.00
77320;PMS7003;66382;52.252;8.780;2024-02-04T11:30:37;1.00;1.00;0.00
77320;PMS7003;66382;52.252;8.780;2024-02-04T11:33:03;0.00;0.00;0.00
77320;PMS7003;66382;52.252;8.780;2024-02-04T11:35:29;1.00;1.00;1.00
77320;PMS7003;66382;52.252;8.780;2024-02-04T11:37:54;0.33;0.33;0.00
77320;PMS7003;66382;52.252;8.780;2024-02-04T11:40:20;1.00;1.00;1.00
77320;PMS7003;66382;52.252;8.780;2024-02-04T11:42:46;0.00;0.00;0.00
77320;PMS7003;66382;52.252;8.780;2024-02-04T11:45:12;1.33;1.33;1.33
77320;PMS7003;66382;52.252;8.780;2024-02-04T11:47:40;0.33;0.33;0.33
77320;PMS7003;66382;52.252;8.780;2024-02-04T11:50:06;1.00;1.00;0.00
77320;PMS7003;66382;52.252;8.780;2024-02-04T11:52:32;2.00;2.00;1.00
77320;PMS7003;66382;52.252;8.780;2024-02-04T11:54:57;0.00;0.00;0.00
77320;PMS7003;66382;52.252;8.780;2024-02-04T11:57:23;0.33;0.33;0.00
77320;PMS7003;66382;52.252;8.780;2024-02-04T11:59:49;1.67;1.67;1.00
77320;PMS7003;66382;52.252;8.780;2024-02-04T12:02:15;1.00;1.00;1.00
77320;PMS7003;66382;52.252;8.780;2024-02-04T12:04:43;2.00;2.00;1.33
77320;PMS7003;66382;52.252;8.780;2024-02-04T12:07:09;3.00;3.00;3.00
77320;PMS7003;66382;52.252;8.780;2024-02-04T12:09:35;4.00;4.00;2.00
77320;PMS7003;66382;52.252;8.780;2024-02-04T12:12:01;2.00;2.00;1.67
77320;PMS7003;66382;52.252;8.780;2024-02-04T12:14:27;2.00;2.00;1.67
77320;PMS7003;66382;52.252;8.780;2024-02-04T12:16:53;2.33;2.33;2.33
77320;PMS7003;66382;52.252;8.780;2024-02-04T12:19:19;4.00;4.00;3.00
77320;PMS7003;66382;52.252;8.780;2024-02-04T12:21:46;4.00;4.00;3.00
77320;PMS7003;66382;52.252;8.780;2024-02-04T12:24:11;3.00;3.00;2.00
77320;PMS7003;66382;52.252;8.780;2024-02-04T12:26:37;2.00;2.00;2.00
77320;PMS7003;66382;52.252;8.780;2024-02-04T12:29:04;3.00;3.00;3.00
77320;PMS7003;66382;52.252;8.780;2024-02-04T12:31:29;4.00;4.00;3.67
77320;PMS7003;66382;52.252;8.780;2024-02-04T12:33:55;4.00;4.00;3.00
77320;PMS7003;66382;52.252;8.780;2024-02-04T12:36:22;2.00;2.00;2.00
77320;PMS7003;66382;52.252;8.780;2024-02-04T12:38:52;4.67;4.67;3.33
77320;PMS7003;66382;52.252;8.780;2024-02-04T12:41:18;2.33;2.33;2.00
77320;PMS7003;66382;52.252;8.780;2024-02-04T12:43:47;4.00;4.00;3.00
77320;PMS7003;66382;52.252;8.780;2024-02-04T12:46:14;3.00;3.00;2.67
77320;PMS7003;66382;52.252;8.780;2024-02-04T12:48:40;2.00;2.00;2.00
77320;PMS7003;66382;52.252;8.780;2024-02-04T12:51:05;4.25;4.25;3.75
77320;PMS7003;66382;52.252;8.780;2024-02-04T12:53:31;4.00;4.00;3.00
77320;PMS7003;66382;52.252;8.780;2024-02-04T12:55:59;4.00;4.00;4.00
77320;PMS7003;66382;52.252;8.780;2024-02-04T12:58:24;4.00;4.00;3.25
77320;PMS7003;66382;52.252;8.780;2024-02-04T13:00:58;4.00;4.00;4.00
77320;PMS7003;66382;52.252;8.780;2024-02-04T13:03:24;3.00;3.00;3.00
77320;PMS7003;66382;52.252;8.780;2024-02-04T13:05:50;3.75;3.75;3.00
77320;PMS7003;66382;52.252;8.780;2024-02-04T13:08:18;3.75;3.75;3.00
77320;PMS7003;66382;52.252;8.780;2024-02-04T13:10:43;4.00;4.00;2.75
77320;PMS7003;66382;52.252;8.780;2024-02-04T13:13:19;5.00;5.00;4.25
77320;PMS7003;66382;52.252;8.780;2024-02-04T13:15:45;6.00;6.00;4.25
77320;PMS7003;66382;52.252;8.780;2024-02-04T13:18:10;6.50;6.50;5.50
77320;PMS7003;66382;52.252;8.780;2024-02-04T13:20:36;5.00;5.00;4.25
77320;PMS7003;66382;52.252;8.780;2024-02-04T13:23:01;7.00;7.00;6.00
77320;PMS7003;66382;52.252;8.780;2024-02-04T13:25:27;7.00;7.00;5.00
77320;PMS7003;66382;52.252;8.780;2024-02-04T13:27:52;6.50;6.50;5.00
77320;PMS7003;66382;52.252;8.780;2024-02-04T13:30:19;5.75;5.75;5.00
77320;PMS7003;66382;52.252;8.780;2024-02-04T13:32:45;6.50;6.50;6.00
77320;PMS7003;66382;52.252;8.780;2024-02-04T13:35:11;9.00;9.00;7.50
77320;PMS7003;66382;52.252;8.780;2024-02-04T13:37:36;6.25;6.25;5.00
77320;PMS7003;66382;52.252;8.780;2024-02-04T13:40:05;7.00;7.00;5.75
77320;PMS7003;66382;52.252;8.780;2024-02-04T13:42:31;5.33;5.33;4.33
77320;PMS7003;66382;52.252;8.780;2024-02-04T13:44:57;5.33;5.33;5.00
77320;PMS7003;66382;52.252;8.780;2024-02-04T13:47:24;12.25;12.25;8.75
77320;PMS7003;66382;52.252;8.780;2024-02-04T13:49:49;11.00;11.00;9.25
77320;PMS7003;66382;52.252;8.780;2024-02-04T13:52:15;23.00;23.00;17.75
77320;PMS7003;66382;52.252;8.780;2024-02-04T13:54:40;28.50;28.50;20.00
77320;PMS7003;66382;52.252;8.780;2024-02-04T13:57:06;11.50;11.50;9.75
77320;PMS7003;66382;52.252;8.780;2024-02-04T13:59:31;8.25;8.25;7.00
77320;PMS7003;66382;52.252;8.780;2024-02-04T14:01:57;13.00;12.50;10.00
77320;PMS7003;66382;52.252;8.780;2024-02-04T14:04:23;10.25;10.25;7.75
77320;PMS7003;66382;52.252;8.780;2024-02-04T14:06:49;22.00;20.50;12.25
77320;PMS7003;66382;52.252;8.780;2024-02-04T14:09:15;9.00;9.00;7.50